Lake Delton, Wisconsin
Current Conditions -  °F | °C
As of 3:35 AM on Thursday 27 Nov 2014 (Local Time) from KDLL Reporting Station
Light Snow Light Snow  
Wind Chill: 14°   Ceiling: 1800
Heat Index: 22°   Visibility: 5mi
Dew Point: 19°   Wind: 7mph
Humidity: 87%   Direction: 340°NNW
Pressure: 30.26"   Gusts: NA
Location:  43.6°N, 89.79°W
Report Text: KDLL 270935Z AUTO 34006KT 5SM -SN SCT013 BKN018 OVC026 M05/M07 A3026 RMK AO2 T10551074
Loading
Personal Weather Stations






























Interactive Weather Map New forecast layout! Learn more

10-Day Weather Forecast

Advertisements
Track Severe Weather on mobile